Home > Products > Valid Products > TAF

000
FTUS42 KJAX 012339
TAFSSI
TAF
KSSI 012339Z 0200/0224 15008KT P6SM VCSH FEW018 BKN035 OVC050
      TEMPO 0200/0201 SHRA BKN025
     FM020200 20007KT P6SM FEW015 SCT025 BKN060
     FM021300 22007KT P6SM VCTS BKN030CB=



000
FTUS42 KJAX 012339
TAFJAX
TAF
KJAX 012339Z 0200/0224 19007KT P6SM VCSH FEW015 BKN050 BKN150
      TEMPO 0200/0203 SHRA BKN015
     FM021500 23010KT P6SM VCTS BKN030CB=



000
FTUS42 KJAX 012339
TAFCRG
TAF
KCRG 012339Z 0200/0224 19007KT P6SM VCSH SCT022 BKN035
      TEMPO 0200/0203 SHRA BKN015
     FM021500 23010KT P6SM VCTS BKN030CB=



000
FTUS42 KJAX 012339
TAFSSI
TAF
KSSI 012339Z 0200/0224 15008KT P6SM VCSH FEW018 BKN035 OVC050
      TEMPO 0200/0201 SHRA BKN025
     FM020200 20007KT P6SM FEW015 SCT025 BKN060
     FM021300 22007KT P6SM VCTS BKN030CB=



000
FTUS42 KJAX 012339
TAFGNV
TAF
KGNV 012339Z 0200/0224 17008KT P6SM VCSH SCT015 BKN060 OVC080
      TEMPO 0200/0202 6SM SHRA BR BKN008 OVC020
     FM020500 20006KT P6SM VCSH SCT005 BKN010
     FM021400 22010G17KT P6SM VCTS OVC030CB
      TEMPO 0214/0218 3SM TSRA BKN015CB OVC030=



000
FTUS42 KJAX 012339
TAFGNV
TAF
KGNV 012339Z 0200/0224 17008KT P6SM VCSH SCT015 BKN060 OVC080
      TEMPO 0200/0202 6SM SHRA BR BKN008 OVC020
     FM020500 20006KT P6SM VCSH SCT005 BKN010
     FM021400 22010G17KT P6SM VCTS OVC030CB
      TEMPO 0214/0218 3SM TSRA BKN015CB OVC030=



000
FTUS42 KJAX 012339
TAFJAX
TAF
KJAX 012339Z 0200/0224 19007KT P6SM VCSH FEW015 BKN050 BKN150
      TEMPO 0200/0203 SHRA BKN015
     FM021500 23010KT P6SM VCTS BKN030CB=



000
FTUS42 KJAX 012339
TAFCRG
TAF
KCRG 012339Z 0200/0224 19007KT P6SM VCSH SCT022 BKN035
      TEMPO 0200/0203 SHRA BKN015
     FM021500 23010KT P6SM VCTS BKN030CB=



000
FTUS42 KJAX 012256 AAC
TAFJAX
TAF AMD
KJAX 012256Z 0123/0218 20006KT P6SM VCSH FEW015 BKN030 OVC120
      TEMPO 0200/0203 SHRA BKN016
     FM021500 23010KT P6SM VCTS BKN030CB=



000
FTUS42 KJAX 012256 AAC
TAFGNV
TAF AMD
KGNV 012256Z 0123/0218 19009KT P6SM VCSH FEW010 BKN015 OVC040
      TEMPO 0200/0202 6SM SHRA BR BKN008 OVC020
     FM020500 20006KT P6SM VCSH SCT005 BKN010
     FM021400 22010G17KT P6SM VCTS OVC030CB=



000
FTUS42 KJAX 012256 AAC
TAFSSI
TAF AMD
KSSI 012256Z 0123/0218 17008KT P6SM VCSH SCT025 BKN035
      TEMPO 0123/0201 SHRA BKN025
     FM020200 21007KT P6SM FEW015 SCT025 BKN120
     FM021300 22007KT P6SM VCTS BKN030CB=



000
FTUS42 KJAX 012256 AAC
TAFCRG
TAF AMD
KCRG 012256Z 0123/0218 22009KT P6SM VCSH SCT022 BKN050
      TEMPO 0200/0203 SHRA BKN016
     FM021500 23010KT P6SM VCTS BKN030CB=



000
FTUS42 KJAX 012055 AAB
TAFCRG
TAF AMD
KCRG 012055Z 0121/0218 23011KT P6SM VCSH SCT022 BKN060
      TEMPO 0121/0123 5SM SHRA BKN015
     FM012300 21006KT P6SM BKN035 BKN250
     FM021500 23010KT P6SM VCTS BKN030CB=



000
FTUS42 KJAX 012055 AAB
TAFCRG
TAF AMD
KCRG 012055Z 0121/0218 23011KT P6SM VCSH SCT022 BKN060
      TEMPO 0121/0123 5SM SHRA BKN015
     FM012300 21006KT P6SM BKN035 BKN250
     FM021500 23010KT P6SM VCTS BKN030CB=



000
FTUS42 KJAX 012037 AAB
TAFSSI
TAF AMD
KSSI 012037Z 0121/0218 15008KT P6SM VCSH SCT030 BKN060
      TEMPO 0121/0124 SHRA BKN025
     FM020100 21007KT P6SM SCT030 BKN250
     FM021300 22007KT P6SM VCTS BKN030CB=



000
FTUS42 KJAX 012000 AAB
TAFGNV
TAF AMD
KGNV 012000Z 0120/0218 21008KT P6SM VCSH BKN012 OVC025
      TEMPO 0120/0124 5SM SHRA BR BKN007 OVC020
     FM020000 22008KT P6SM VCSH OVC025
     FM021400 22010G17KT P6SM VCTS OVC030CB=



000
FTUS42 KJAX 011927 AAB
TAFJAX
TAF AMD
KJAX 011927Z 0119/0218 20008KT P6SM BKN018 BKN150
      TEMPO 0119/0122 4SM SHRA BKN008 OVC025
     FM012300 19006KT P6SM SCT022 BKN035 BKN250
     FM021500 23010KT P6SM VCTS BKN030CB=



000
FTUS42 KJAX 011927 AAB
TAFJAX
TAF AMD
KJAX 011927Z 0119/0218 20008KT P6SM BKN018 BKN150
      TEMPO 0119/0122 4SM SHRA BKN008 OVC025
     FM012300 19006KT P6SM SCT022 BKN035 BKN250
     FM021500 23010KT P6SM VCTS BKN030CB=



000
FTUS42 KJAX 011847 AAA
TAFCRG
TAF AMD
KCRG 011847Z 0119/0218 23011G16KT P6SM VCTS SCT022 BKN035CB
      TEMPO 0119/0123 4SM SHRA BKN015
     FM012300 21006KT P6SM BKN035 BKN250
     FM021500 23010KT P6SM VCTS BKN030CB=



000
FTUS42 KJAX 011816 AAA
TAFGNV
TAF AMD
KGNV 011816Z 0118/0218 21010KT 5SM -SHRA BR SCT007 OVC050
      TEMPO 0118/0122 2SM -SHRA BR BKN007 OVC020
     FM020000 22008KT P6SM VCSH OVC025
     FM021400 22010G17KT P6SM VCTS OVC030CB=



000
FTUS42 KJAX 011814 AAA
TAFSSI
TAF AMD
KSSI 011814Z 0118/0218 VRB06KT P6SM VCSH BKN035
     FM011900 22008KT P6SM VCTS BKN035CB
      TEMPO 0119/0122 4SM -TSRA BKN025CB
     FM020100 22007KT P6SM SCT030 BKN250
     FM021300 22007KT P6SM VCTS BKN030CB=



000
FTUS42 KJAX 011723
TAFCRG
TAF
KCRG 011723Z 0118/0218 21010KT P6SM VCTS OVC035CB
      TEMPO 0118/0122 2SM TSRA BKN015 OVC025CB
     FM012300 21006KT P6SM BKN035 BKN250
     FM021500 23010KT P6SM VCTS BKN030CB=



000
FTUS42 KJAX 011723
TAFGNV
TAF
KGNV 011723Z 0118/0218 23012KT P6SM VCTS OVC020CB
      TEMPO 0118/0122 2SM TSRA OVC009CB
     FM020000 22008KT P6SM VCSH OVC025
     FM021400 22010G17KT P6SM VCTS OVC030CB=



000
FTUS42 KJAX 011723
TAFSSI
TAF
KSSI 011723Z 0118/0218 22008KT P6SM VCTS BKN035CB
      TEMPO 0118/0122 4SM -TSRA BKN025CB
     FM020100 22007KT P6SM SCT030 BKN250
     FM021300 22007KT P6SM VCTS BKN030CB=



000
FTUS42 KJAX 011723
TAFJAX
TAF
KJAX 011723Z 0118/0218 21010KT P6SM VCTS OVC035CB
      TEMPO 0118/0122 2SM TSRA BKN015 OVC025CB
     FM012300 21006KT P6SM BKN035 BKN250
     FM021500 23010KT P6SM VCTS BKN030CB=



000
FTUS42 KJAX 011723
TAFSSI
TAF
KSSI 011723Z 0118/0218 22008KT P6SM VCTS BKN035CB
      TEMPO 0118/0122 4SM -TSRA BKN025CB
     FM020100 22007KT P6SM SCT030 BKN250
     FM021300 22007KT P6SM VCTS BKN030CB=



000
FTUS42 KJAX 011723
TAFJAX
TAF
KJAX 011723Z 0118/0218 21010KT P6SM VCTS OVC035CB
      TEMPO 0118/0122 2SM TSRA BKN015 OVC025CB
     FM012300 21006KT P6SM BKN035 BKN250
     FM021500 23010KT P6SM VCTS BKN030CB=



000
FTUS42 KJAX 011723
TAFGNV
TAF
KGNV 011723Z 0118/0218 23012KT P6SM VCTS OVC020CB
      TEMPO 0118/0122 2SM TSRA OVC009CB
     FM020000 22008KT P6SM VCSH OVC025
     FM021400 22010G17KT P6SM VCTS OVC030CB=



000
FTUS42 KJAX 011723
TAFCRG
TAF
KCRG 011723Z 0118/0218 21010KT P6SM VCTS OVC035CB
      TEMPO 0118/0122 2SM TSRA BKN015 OVC025CB
     FM012300 21006KT P6SM BKN035 BKN250
     FM021500 23010KT P6SM VCTS BKN030CB=



000
FTUS42 KJAX 011700 AAE
TAFGNV
TAF AMD
KGNV 011700Z 0117/0212 22010KT 6SM -SHRA OVC009
      TEMPO 0117/0118 3SM -SHRA
     FM011800 23012G22KT P6SM VCTS OVC025CB
      TEMPO 0118/0122 2SM TSRA OVC015CB
     FM020000 22008KT P6SM VCSH OVC025=



000
FTUS42 KJAX 011626 AAC
TAFCRG
TAF AMD
KCRG 011626Z 0116/0212 22010KT P6SM VCSH SCT025 OVC050
      TEMPO 0116/0118 3SM -SHRA BR OVC025
     FM011800 22010KT P6SM VCTS BKN035CB
      TEMPO 0118/0122 2SM TSRA BKN025CB
     FM012300 22006KT P6SM SCT030 BKN200=



000
FTUS42 KJAX 011625 AAE
TAFJAX
TAF AMD
KJAX 011625Z 0116/0212 22010KT P6SM VCSH SCT025 OVC050
      TEMPO 0116/0118 4SM -SHRA BR OVC025
     FM011800 22010KT P6SM VCTS BKN035CB
      TEMPO 0118/0122 2SM TSRA BKN025CB
     FM012300 22006KT P6SM SCT030 BKN200=



000
FTUS42 KJAX 011441 AAB
TAFCRG
TAF AMD
KCRG 011441Z 0115/0212 22010KT P6SM VCSH SCT020 BKN080
      TEMPO 0115/0117 BKN020
     FM011700 22010KT P6SM VCTS BKN035CB
      TEMPO 0117/0121 2SM TSRA BKN025CB
     FM012300 22006KT P6SM SCT030 BKN200=



000
FTUS42 KJAX 011440 AAB
TAFSSI
TAF AMD
KSSI 011440Z 0115/0212 21006KT P6SM BKN010 OVC020
     FM011700 18008KT P6SM BKN025
     FM012200 20010KT P6SM VCTS BKN035CB
     FM020100 24010KT P6SM SCT030 BKN200=



000
FTUS42 KJAX 011440 AAB
TAFSSI
TAF AMD
KSSI 011440Z 0115/0212 21006KT P6SM BKN010 OVC020
     FM011700 18008KT P6SM BKN025
     FM012200 20010KT P6SM VCTS BKN035CB
     FM020100 24010KT P6SM SCT030 BKN200=



000
FTUS42 KJAX 011439 AAD
TAFGNV
TAF AMD
KGNV 011439Z 0115/0212 25012KT 1SM SHRA BR SCT008 OVC035
      TEMPO 0115/0116 1/2SM SHRA FG BKN008 OVC015
     FM011600 23012G22KT P6SM VCTS OVC035CB
      TEMPO 0116/0120 2SM TSRA OVC015CB
     FM012200 23014KT P6SM BKN020
     FM020500 22008KT P6SM SCT020 BKN050=



000
FTUS42 KJAX 011359 AAC
TAFGNV
TAF AMD
KGNV 011359Z 0114/0212 17005KT 6SM -SHRA BR SCT008 OVC035
      TEMPO 0114/0116 3SM -SHRA BR BKN008 OVC015
     FM011600 22012G22KT P6SM VCTS OVC035CB
      TEMPO 0116/0120 2SM TSRA OVC015CB
     FM012200 23014KT P6SM BKN020
     FM020500 22008KT P6SM SCT020 BKN050=



000
FTUS42 KJAX 011359 AAC
TAFGNV
TAF AMD
KGNV 011359Z 0114/0212 17005KT 6SM -SHRA BR SCT008 OVC035
      TEMPO 0114/0116 3SM -SHRA BR BKN008 OVC015
     FM011600 22012G22KT P6SM VCTS OVC035CB
      TEMPO 0116/0120 2SM TSRA OVC015CB
     FM012200 23014KT P6SM BKN020
     FM020500 22008KT P6SM SCT020 BKN050=



000
FTUS42 KJAX 011311 AAA
TAFCRG
TAF AMD
KCRG 011311Z 0113/0212 20007KT P6SM SCT015 BKN050
      TEMPO 0113/0115 BKN015
     FM011500 22010KT P6SM VCSH SCT020 BKN080
      TEMPO 0115/0117 BKN020
     FM011700 22010KT P6SM VCTS BKN035CB
      TEMPO 0117/0121 2SM TSRA BKN025CB
     FM012300 22006KT P6SM SCT030 BKN200=



000
FTUS42 KJAX 011311 AAA
TAFCRG
TAF AMD
KCRG 011311Z 0113/0212 20007KT P6SM SCT015 BKN050
      TEMPO 0113/0115 BKN015
     FM011500 22010KT P6SM VCSH SCT020 BKN080
      TEMPO 0115/0117 BKN020
     FM011700 22010KT P6SM VCTS BKN035CB
      TEMPO 0117/0121 2SM TSRA BKN025CB
     FM012300 22006KT P6SM SCT030 BKN200=



000
FTUS42 KJAX 011310 AAC
TAFJAX
TAF AMD
KJAX 011310Z 0113/0212 20007KT P6SM SCT015 BKN050
      TEMPO 0113/0115 BKN015
     FM011500 22010KT P6SM VCSH SCT020 BKN080
      TEMPO 0115/0117 BKN020
     FM011700 22010KT P6SM VCTS BKN035CB
      TEMPO 0117/0121 2SM TSRA BKN025CB
     FM012300 22006KT P6SM SCT030 BKN200=



000
FTUS42 KJAX 011310 AAC
TAFJAX
TAF AMD
KJAX 011310Z 0113/0212 20007KT P6SM SCT015 BKN050
      TEMPO 0113/0115 BKN015
     FM011500 22010KT P6SM VCSH SCT020 BKN080
      TEMPO 0115/0117 BKN020
     FM011700 22010KT P6SM VCTS BKN035CB
      TEMPO 0117/0121 2SM TSRA BKN025CB
     FM012300 22006KT P6SM SCT030 BKN200=



000
FTUS42 KJAX 011258 AAB
TAFGNV
TAF AMD
KGNV 011258Z 0113/0212 19005KT 6SM -SHRA BR OVC008
     FM011500 21012KT 6SM -SHRA BR OVC015
     FM011600 22012G22KT P6SM VCTS OVC035CB
      TEMPO 0116/0120 2SM TSRA OVC015CB
     FM012200 23014KT P6SM BKN020
     FM020500 22008KT P6SM SCT020 BKN050=



000
FTUS42 KJAX 011256 AAA
TAFSSI
TAF AMD
KSSI 011256Z 0113/0212 24007KT P6SM OVC007
     FM011500 VRB06KT P6SM BKN010
     FM011700 18008KT P6SM SCT030
     FM012200 20010KT P6SM VCTS BKN035CB
     FM020100 24010KT P6SM SCT030 BKN200=



000
FTUS42 KJAX 011205 AAA
TAFGNV
TAF AMD
KGNV 011205Z 0112/0212 19005KT 6SM -SHRA BR SCT015 OVC035
      TEMPO 0112/0115 4SM -SHRA BKN006 OVC015
     FM011500 22012G22KT P6SM VCTS BKN035CB
      TEMPO 0116/0120 2SM TSRA BKN025CB
     FM012200 23014KT P6SM BKN020
     FM020500 22008KT P6SM SCT020 BKN050=



000
FTUS42 KJAX 011135
TAFJAX
TAF
KJAX 011135Z 0112/0212 20005KT P6SM SCT015 BKN250
      TEMPO 0112/0114 BKN015
     FM011400 22010KT P6SM SCT020
     FM011600 22010KT P6SM VCTS BKN035CB
      TEMPO 0117/0121 2SM TSRA BKN025CB
     FM012300 22006KT P6SM SCT030 BKN200=



000
FTUS42 KJAX 011135
TAFSSI
TAF
KSSI 011135Z 0112/0212 23007KT P6SM OVC009
     FM011400 23008KT P6SM BKN018
     FM011700 18008KT P6SM SCT030
     FM012200 20010KT P6SM VCTS BKN035CB
     FM020100 24010KT P6SM SCT030 BKN200=



000
FTUS42 KJAX 011135
TAFCRG
TAF
KCRG 011135Z 0112/0212 21005KT P6SM SCT015 BKN250
      TEMPO 0112/0114 BKN015
     FM011400 23008KT P6SM SCT020
     FM011700 22010KT P6SM VCTS BKN035CB
      TEMPO 0118/0122 2SM TSRA BKN025CB
     FM012300 22006KT P6SM SCT030 BKN200=



000
FTUS42 KJAX 011135
TAFGNV
TAF
KGNV 011135Z 0112/0212 19005KT 6SM -SHRA BR SCT015 OVC035
      TEMPO 0112/0115 OVC015
     FM011500 22012G22KT P6SM VCTS BKN035CB
      TEMPO 0116/0120 2SM TSRA BKN025CB
     FM012200 23014KT P6SM BKN020
     FM020500 22008KT P6SM SCT020 BKN050=



000
FTUS42 KJAX 011135
TAFCRG
TAF
KCRG 011135Z 0112/0212 21005KT P6SM SCT015 BKN250
      TEMPO 0112/0114 BKN015
     FM011400 23008KT P6SM SCT020
     FM011700 22010KT P6SM VCTS BKN035CB
      TEMPO 0118/0122 2SM TSRA BKN025CB
     FM012300 22006KT P6SM SCT030 BKN200=



000
FTUS42 KJAX 011135
TAFGNV
TAF
KGNV 011135Z 0112/0212 19005KT 6SM -SHRA BR SCT015 OVC035
      TEMPO 0112/0115 OVC015
     FM011500 22012G22KT P6SM VCTS BKN035CB
      TEMPO 0116/0120 2SM TSRA BKN025CB
     FM012200 23014KT P6SM BKN020
     FM020500 22008KT P6SM SCT020 BKN050=



000
FTUS42 KJAX 011135
TAFJAX
TAF
KJAX 011135Z 0112/0212 20005KT P6SM SCT015 BKN250
      TEMPO 0112/0114 BKN015
     FM011400 22010KT P6SM SCT020
     FM011600 22010KT P6SM VCTS BKN035CB
      TEMPO 0117/0121 2SM TSRA BKN025CB
     FM012300 22006KT P6SM SCT030 BKN200=



000
FTUS42 KJAX 011135
TAFSSI
TAF
KSSI 011135Z 0112/0212 23007KT P6SM OVC009
     FM011400 23008KT P6SM BKN018
     FM011700 18008KT P6SM SCT030
     FM012200 20010KT P6SM VCTS BKN035CB
     FM020100 24010KT P6SM SCT030 BKN200=



000
FTUS42 KJAX 011108 AAB
TAFSSI
TAF AMD
KSSI 011108Z 0111/0206 23007KT P6SM OVC009
     FM011400 23008KT P6SM BKN020
     FM011700 18008KT P6SM SCT030
     FM012200 20010KT P6SM VCTS BKN035CB
     FM020100 24010KT P6SM SCT030 BKN200=



000
FTUS42 KJAX 011108 AAB
TAFSSI
TAF AMD
KSSI 011108Z 0111/0206 23007KT P6SM OVC009
     FM011400 23008KT P6SM BKN020
     FM011700 18008KT P6SM SCT030
     FM012200 20010KT P6SM VCTS BKN035CB
     FM020100 24010KT P6SM SCT030 BKN200=



000
FTUS42 KJAX 011108 AAB
TAFCRG
TAF AMD
KCRG 011108Z 0111/0206 21005KT P6SM SCT015 BKN250
      TEMPO 0111/0114 BKN015
     FM011400 23008KT P6SM SCT020
     FM011700 22010KT P6SM VCTS BKN035CB
      TEMPO 0118/0122 2SM TSRA BKN025CB
     FM012300 22006KT P6SM SCT030 BKN200=



000
FTUS42 KJAX 011108 AAB
TAFCRG
TAF AMD
KCRG 011108Z 0111/0206 21005KT P6SM SCT015 BKN250
      TEMPO 0111/0114 BKN015
     FM011400 23008KT P6SM SCT020
     FM011700 22010KT P6SM VCTS BKN035CB
      TEMPO 0118/0122 2SM TSRA BKN025CB
     FM012300 22006KT P6SM SCT030 BKN200=



000
FTUS42 KJAX 011107 AAA
TAFCRG
TAF AMD
KCRG 011107Z 0111/0206 21005KT P6SM SCT015 BKN250
      TEMPO 0112/0114 BKN015
     FM011400 23008KT P6SM SCT020
     FM011700 22010KT P6SM VCTS BKN035CB
      TEMPO 0118/0122 2SM TSRA BKN025CB
     FM012300 22006KT P6SM SCT030 BKN200=



000
FTUS42 KJAX 010751 AAA
TAFSSI
TAF AMD
KSSI 010751Z 0108/0206 23007KT P6SM BKN020
     FM011700 18008KT P6SM SCT030
     FM012200 20010KT P6SM VCTS BKN035CB
     FM020100 24010KT P6SM SCT030 BKN200=



000
FTUS42 KJAX 010750 AAB
TAFJAX
TAF AMD
KJAX 010750Z 0108/0206 20010KT P6SM BKN010
     FM011400 22010KT P6SM SCT020
     FM011600 22010KT P6SM VCTS BKN035CB PROB30 0118/0123 2SM TSRA
      BKN025CB
     FM012300 22006KT P6SM SCT030 BKN200=



000
FTUS42 KJAX 010615 AAA
TAFGNV
TAF AMD
KGNV 010615Z 0106/0206 20005KT 6SM -RA BKN008
     FM010800 20005KT 6SM BR VCSH BKN010
     FM011300 21008KT P6SM VCSH SCT030
     FM011600 22012G22KT P6SM VCTS BKN035CB PROB30 0116/0121 2SM
      TSRA BKN025CB
     FM012200 23014KT P6SM BKN020=



000
FTUS42 KJAX 010615 AAA
TAFGNV
TAF AMD
KGNV 010615Z 0106/0206 20005KT 6SM -RA BKN008
     FM010800 20005KT 6SM BR VCSH BKN010
     FM011300 21008KT P6SM VCSH SCT030
     FM011600 22012G22KT P6SM VCTS BKN035CB PROB30 0116/0121 2SM
      TSRA BKN025CB
     FM012200 23014KT P6SM BKN020=



000
FTUS42 KJAX 010528
TAFGNV
TAF
KGNV 010528Z 0106/0206 20005KT P6SM SCT040 BKN200
     FM011300 21008KT P6SM VCSH SCT030
     FM011600 22012G22KT P6SM VCTS BKN035CB PROB30 0116/0121 2SM
      TSRA BKN025CB
     FM012200 23014KT P6SM BKN020=



000
FTUS42 KJAX 010528
TAFJAX
TAF
KJAX 010528Z 0106/0206 21005KT P6SM SCT040 BKN200
     FM011300 23008KT P6SM SCT030
     FM011800 22010KT P6SM VCTS BKN035CB PROB30 0118/0123 2SM TSRA
      BKN025CB
     FM012300 22006KT P6SM SCT030 BKN200=



000
FTUS42 KJAX 010528
TAFCRG
TAF
KCRG 010528Z 0106/0206 21005KT P6SM SCT040 BKN200
     FM011300 23008KT P6SM SCT030
     FM011800 22010KT P6SM VCTS BKN035CB PROB30 0118/0123 2SM TSRA
      BKN025CB
     FM012300 22006KT P6SM SCT030 BKN200=



000
FTUS42 KJAX 010528
TAFSSI
TAF
KSSI 010528Z 0106/0206 23007KT P6SM SCT020 BKN200
     FM011700 18008KT P6SM SCT030
     FM012000 20010KT P6SM VCTS BKN035CB
     FM020100 24010KT P6SM SCT030 BKN200=



000
FTUS42 KJAX 312352
TAFCRG
TAF
KCRG 312352Z 0100/0124 21005KT P6SM SCT040 BKN200
     FM011300 23008KT P6SM SCT030
     FM011800 22010KT P6SM VCTS BKN035CB PROB30 0118/0123 2SM TSRA
      BKN025CB=



000
FTUS42 KJAX 312352
TAFGNV
TAF
KGNV 312352Z 0100/0124 20005KT P6SM SCT040 BKN200
     FM011300 21008KT P6SM VCSH SCT030
     FM011600 22012G22KT P6SM VCTS BKN035CB PROB30 0116/0121 2SM
      TSRA BKN025CB=



000
FTUS42 KJAX 312352
TAFSSI
TAF
KSSI 312352Z 0100/0124 23007KT P6SM SCT020 BKN200
      TEMPO 0100/0101 1/4SM +TSRA SCT006CB OVC012
     FM011700 18008KT P6SM SCT030
     FM012000 20010KT P6SM VCTS BKN035CB=



000
FTUS42 KJAX 312352
TAFJAX
TAF
KJAX 312352Z 0100/0124 21005KT P6SM SCT040 BKN200
     FM011300 23008KT P6SM SCT030
     FM011800 22010KT P6SM VCTS BKN035CB PROB30 0118/0123 2SM TSRA
      BKN025CB=



000
FTUS42 KJAX 312254 AAC
TAFCRG
TAF AMD
KCRG 312254Z 3123/0118 16012KT P6SM BKN040
      TEMPO 3123/3124 3SM SHRA BKN035
     FM010000 21007KT P6SM SCT050 BKN250
     FM010900 21005KT P6SM BKN005
     FM011300 23008KT P6SM SCT030=



000
FTUS42 KJAX 312254 AAC
TAFCRG
TAF AMD
KCRG 312254Z 3123/0118 16012KT P6SM BKN040
      TEMPO 3123/3124 3SM SHRA BKN035
     FM010000 21007KT P6SM SCT050 BKN250
     FM010900 21005KT P6SM BKN005
     FM011300 23008KT P6SM SCT030=



000
FTUS42 KJAX 312143 AAB
TAFJAX
TAF AMD
KJAX 312143Z 3122/0118 18009KT P6SM VCTS BKN040CB
      TEMPO 3122/3124 3SM SHRA BKN035
     FM010000 21007KT P6SM SCT050 BKN250
     FM010800 21004KT P6SM BKN005
     FM011300 23008KT P6SM SCT030=



000
FTUS42 KJAX 312143 AAB
TAFJAX
TAF AMD
KJAX 312143Z 3122/0118 18009KT P6SM VCTS BKN040CB
      TEMPO 3122/3124 3SM SHRA BKN035
     FM010000 21007KT P6SM SCT050 BKN250
     FM010800 21004KT P6SM BKN005
     FM011300 23008KT P6SM SCT030=



000
FTUS42 KJAX 311944 AAA
TAFSSI
TAF AMD
KSSI 311944Z 3120/0118 16008KT P6SM VCTS BKN040CB
      TEMPO 3121/3124 VRB20G30KT 2SM TSRA BKN020CB
     FM010000 21007KT P6SM SCT050 BKN250
     FM010900 21005KT P6SM BKN005
     FM011300 23008KT P6SM SCT030=



000
FTUS42 KJAX 311941 AAA
TAFGNV
TAF AMD
KGNV 311941Z 3120/0118 20010KT P6SM VCSH SCT035 BKN250
     FM010000 21007KT P6SM SCT050 BKN250
     FM010800 21004KT P6SM BKN005
     FM011300 23009KT P6SM VCSH SCT030=



000
FTUS42 KJAX 311941 AAA
TAFGNV
TAF AMD
KGNV 311941Z 3120/0118 20010KT P6SM VCSH SCT035 BKN250
     FM010000 21007KT P6SM SCT050 BKN250
     FM010800 21004KT P6SM BKN005
     FM011300 23009KT P6SM VCSH SCT030=



000
FTUS42 KJAX 311939 AAB
TAFCRG
TAF AMD
KCRG 311939Z 3120/0118 16012KT P6SM BKN040
      TEMPO 3120/3122 3SM SHRA BKN035
     FM010000 21007KT P6SM SCT050 BKN250
     FM010900 21005KT P6SM BKN005
     FM011300 23008KT P6SM SCT030=



000
FTUS42 KJAX 311939 AAB
TAFJAX
TAF AMD
KJAX 311939Z 3120/0118 18009KT P6SM VCSH BKN040
      TEMPO 3120/3122 3SM SHRA BKN035
     FM010000 21007KT P6SM SCT050 BKN250
     FM010800 21004KT P6SM BKN005
     FM011300 23008KT P6SM SCT030=



000
FTUS42 KJAX 311937 CCA
TAFJAX
TAF COR
KJAX 311937Z 3120/0118 18009KT P6SM VCSH BKN040
      TEMPO 3120/3122 3SM TSRA BKN035CB
     FM010000 21007KT P6SM SCT050 BKN250
     FM010800 21004KT P6SM BKN005
     FM011300 23008KT P6SM SCT030=



000
FTUS42 KJAX 311936 AAA
TAFCRG
TAF AMD
KCRG 311936Z 3120/0118 16012KT P6SM VCSH BKN040
      TEMPO 3120/3122 3SM TSRA BKN035CB
     FM010000 21007KT P6SM SCT050 BKN250
     FM010900 21005KT P6SM BKN005
     FM011300 23008KT P6SM SCT030=



000
FTUS42 KJAX 311935 AAA
TAFJAX
TAF AMD
KJAX 311935Z 3120/0118 18009KT P6SM VCSH BKN040
      TEMPO 3120/3122 VRB20G30KT 3SM TSRA BKN035CB
     FM010000 21007KT P6SM SCT050 BKN250
     FM010800 21004KT P6SM BKN005
     FM011300 23008KT P6SM SCT030=



000
FTUS42 KJAX 311720
TAFSSI
TAF
KSSI 311720Z 3118/0118 22008KT P6SM VCSH BKN035
     FM312000 16008KT P6SM VCTS BKN040CB
      TEMPO 3120/3123 VRB20G30KT 2SM TSRA BKN020CB
     FM010000 21007KT P6SM SCT050 BKN250
     FM010900 21005KT P6SM BKN005
     FM011300 23008KT P6SM SCT030=



000
FTUS42 KJAX 311720
TAFJAX
TAF
KJAX 311720Z 3118/0118 22009KT P6SM VCSH BKN035
      TEMPO 3119/3122 VRB20G30KT 2SM TSRA BKN020CB
     FM010000 21007KT P6SM SCT050 BKN250
     FM010800 21004KT P6SM BKN005
     FM011300 23008KT P6SM SCT030=



000
FTUS42 KJAX 311720
TAFGNV
TAF
KGNV 311720Z 3118/0118 21010KT P6SM VCTS BKN035CB
      TEMPO 3118/3121 VRB20G30KT 2SM -TSRA BKN025CB
     FM312200 21008KT P6SM VCSH SCT025 BKN050
     FM010000 21007KT P6SM SCT050 BKN250
     FM010800 21004KT P6SM BKN005
     FM011300 23009KT P6SM VCSH SCT030=



000
FTUS42 KJAX 311720
TAFCRG
TAF
KCRG 311720Z 3118/0118 22009KT P6SM VCSH BKN035
      TEMPO 3119/3122 VRB20G30KT 2SM TSRA BKN020CB
     FM010000 21007KT P6SM SCT050 BKN250
     FM010900 21005KT P6SM BKN005
     FM011300 23008KT P6SM SCT030=



000
FTUS42 KJAX 311559 AAB
TAFCRG
TAF AMD
KCRG 311559Z 3116/0112 21007KT P6SM VCSH SCT025
      TEMPO 3116/3118 BKN025
     FM311800 12008KT P6SM VCTS SCT020 SCT040CB BKN080
     FM312000 15008KT P6SM VCTS SCT020 BKN040CB
     FM010200 VRB04KT P6SM SKC=



000
FTUS42 KJAX 311556 AAC
TAFJAX
TAF AMD
KJAX 311556Z 3116/0112 21006KT P6SM VCSH BKN025
     FM311900 21008KT P6SM VCTS BKN040CB
      TEMPO 3120/3124 3SM TSRA BKN040CB
     FM010000 21005KT P6SM SKC=



000
FTUS42 KJAX 311542 AAB
TAFGNV
TAF AMD
KGNV 311542Z 3116/0112 20008KT P6SM VCSH BKN025
      TEMPO 3116/3118 3SM SHRA
     FM311800 24010KT P6SM VCTS BKN050CB
      TEMPO 3118/3121 P6SM -TSRA BKN050CB
     FM312100 21010KT P6SM VCTS SCT025CB BKN050
     FM010000 21005KT P6SM SCT250=



000
FTUS42 KJAX 311440 AAB
TAFJAX
TAF AMD
KJAX 311440Z 3115/0112 21006KT P6SM BKN025
     FM311900 21008KT P6SM VCTS BKN040CB
      TEMPO 3120/3124 3SM TSRA BKN040CB
     FM010000 21005KT P6SM SKC=



000
FTUS42 KJAX 311440 AAB
TAFJAX
TAF AMD
KJAX 311440Z 3115/0112 21006KT P6SM BKN025
     FM311900 21008KT P6SM VCTS BKN040CB
      TEMPO 3120/3124 3SM TSRA BKN040CB
     FM010000 21005KT P6SM SKC=



000
FTUS42 KJAX 311432 AAC
TAFSSI
TAF AMD
KSSI 311432Z 3115/0112 24008KT P6SM BKN012
      TEMPO 3115/3117 SCT012
     FM311700 15008KT P6SM SCT040
     FM312000 18008KT P6SM VCTS BKN040CB=



000
FTUS42 KJAX 311403 AAA
TAFCRG
TAF AMD
KCRG 311403Z 3114/0112 21007KT P6SM SCT025
      TEMPO 3114/3116 BKN025
     FM311800 12008KT P6SM VCTS SCT020 SCT040CB BKN080
     FM312000 15008KT P6SM VCTS SCT020 BKN040CB
     FM010200 VRB04KT P6SM SKC=



000
FTUS42 KJAX 311304 AAB
TAFSSI
TAF AMD
KSSI 311304Z 3113/0112 27005KT P6SM BKN006
      TEMPO 3113/3115 SCT006
     FM311500 15008KT P6SM SCT040
     FM312000 18008KT P6SM VCTS BKN040CB=



000
FTUS42 KJAX 311258 AAA
TAFGNV
TAF AMD
KGNV 311258Z 3113/0112 20005KT P6SM SCT015
      TEMPO 3113/3115 BKN015
     FM311600 24008KT P6SM VCTS BKN050CB
     FM311800 21012KT P6SM OVC050
      TEMPO 3118/3120 P6SM -TSRA BKN050CB
     FM312000 21010KT P6SM VCTS SCT025CB BKN050
      TEMPO 3120/3124 1SM TSRA BKN025CB BKN050
     FM010000 21005KT P6SM SCT250=



000
FTUS42 KJAX 311151 AAA
TAFSSI
TAF AMD
KSSI 311151Z 3112/0112 27005KT P6SM SCT006
      TEMPO 3112/3113 BKN006
     FM311500 15008KT P6SM SCT040
     FM312000 18008KT P6SM VCTS BKN040CB=



000
FTUS42 KJAX 311120
TAFJAX
TAF
KJAX 311120Z 3112/0112 21005KT P6SM FEW250
     FM311300 24008KT P6SM SCT030
     FM312000 21008KT P6SM VCTS BKN040CB
      TEMPO 3120/3124 3SM TSRA BKN040CB
     FM010000 21005KT P6SM SKC=



000
FTUS42 KJAX 311120
TAFCRG
TAF
KCRG 311120Z 3112/0112 21005KT P6SM FEW250
     FM311300 24008KT P6SM SCT030
     FM311800 12008KT P6SM VCTS SCT020 SCT040CB BKN080
     FM312000 15008KT P6SM VCTS SCT020 BKN040CB
     FM010200 VRB04KT P6SM SKC=



000
FTUS42 KJAX 311120
TAFGNV
TAF
KGNV 311120Z 3112/0112 14003KT P6SM SKC
     FM311600 24008KT P6SM VCTS BKN050CB
     FM311800 21012KT P6SM OVC050
      TEMPO 3118/3120 P6SM -TSRA BKN050CB
     FM312000 21010KT P6SM VCTS SCT025CB BKN050
      TEMPO 3120/3124 1SM TSRA BKN025CB BKN050
     FM010000 21005KT P6SM SCT250=



000
FTUS42 KJAX 311120
TAFSSI
TAF
KSSI 311120Z 3112/0112 27005KT P6SM FEW005 FEW250
     FM311500 15008KT P6SM SCT040
     FM312000 18008KT P6SM VCTS BKN040CB=



000
FTUS42 KJAX 311008 AAA
TAFSSI
TAF AMD
KSSI 311008Z 3110/0106 24006KT P6SM SKC
     FM311200 24008KT P6SM SCT030
     FM311500 15008KT P6SM SCT040
     FM312000 18008KT P6SM VCTS BKN040CB=



000
FTUS42 KJAX 311008 AAA
TAFSSI
TAF AMD
KSSI 311008Z 3110/0106 24006KT P6SM SKC
     FM311200 24008KT P6SM SCT030
     FM311500 15008KT P6SM SCT040
     FM312000 18008KT P6SM VCTS BKN040CB=



000
FTUS42 KJAX 311001 AAB
TAFJAX
TAF AMD
KJAX 311001Z 3110/0106 21006KT P6SM FEW250
      TEMPO 3110/3112 5SM BR
     FM311300 24008KT P6SM SCT030
     FM312000 21008KT P6SM VCTS BKN040CB
      TEMPO 3120/3124 3SM TSRA BKN040CB
     FM010000 21005KT P6SM SKC=



000
FTUS42 KJAX 311000 AAA
TAFCRG
TAF AMD
KCRG 311000Z 3110/0106 20004KT P6SM SKC
      TEMPO 3110/3112 5SM BR
     FM311300 24008KT P6SM SCT030
     FM311800 12008KT P6SM VCTS SCT020 SCT040CB BKN080
     FM312000 15008KT P6SM VCTS SCT020 BKN040CB
     FM010200 VRB04KT P6SM SKC=



000
FTUS42 KJAX 310520
TAFGNV
TAF
KGNV 310520Z 3106/0106 00000KT P6SM FEW250
     FM311600 24008KT P6SM VCTS BKN050CB
     FM311800 21012KT P6SM OVC050
      TEMPO 3118/3120 P6SM -TSRA BKN050CB
     FM312000 21010KT P6SM VCTS SCT025CB BKN050
      TEMPO 3120/3124 1SM TSRA BKN025CB BKN050
     FM010000 21005KT P6SM SCT250=



000
FTUS42 KJAX 310520
TAFCRG
TAF
KCRG 310520Z 3106/0106 VRB03KT P6SM FEW150 FEW250
     FM310900 24005KT 5SM BR SCT004
      TEMPO 3111/3113 1SM BR BKN002
     FM311300 24008KT P6SM SCT030
     FM311800 12008KT P6SM VCTS SCT020 SCT040CB BKN080
     FM312000 15008KT P6SM VCTS SCT020 BKN040CB
     FM010200 VRB04KT P6SM SKC=



000
FTUS42 KJAX 310520
TAFGNV
TAF
KGNV 310520Z 3106/0106 00000KT P6SM FEW250
     FM311600 24008KT P6SM VCTS BKN050CB
     FM311800 21012KT P6SM OVC050
      TEMPO 3118/3120 P6SM -TSRA BKN050CB
     FM312000 21010KT P6SM VCTS SCT025CB BKN050
      TEMPO 3120/3124 1SM TSRA BKN025CB BKN050
     FM010000 21005KT P6SM SCT250=



000
FTUS42 KJAX 310520
TAFCRG
TAF
KCRG 310520Z 3106/0106 VRB03KT P6SM FEW150 FEW250
     FM310900 24005KT 5SM BR SCT004
      TEMPO 3111/3113 1SM BR BKN002
     FM311300 24008KT P6SM SCT030
     FM311800 12008KT P6SM VCTS SCT020 SCT040CB BKN080
     FM312000 15008KT P6SM VCTS SCT020 BKN040CB
     FM010200 VRB04KT P6SM SKC=



000
FTUS42 KJAX 310520
TAFJAX
TAF
KJAX 310520Z 3106/0106 VRB03KT P6SM FEW150 FEW250
     FM310900 24005KT 5SM BR SCT004
      TEMPO 3111/3113 1SM BR BKN002
     FM311300 24008KT P6SM SCT030
     FM312000 21008KT P6SM VCTS BKN040CB
      TEMPO 3120/3124 3SM TSRA BKN040CB
     FM010000 21005KT P6SM SKC=



000
FTUS42 KJAX 310520
TAFSSI
TAF
KSSI 310520Z 3106/0106 24005KT P6SM VCSH SCT040 BKN100
      TEMPO 3106/3108 5SM SHRA BKN040
     FM311200 24008KT P6SM SCT030
     FM311500 15008KT P6SM SCT040
     FM312000 18008KT P6SM VCTS BKN040CB=



000
FTUS42 KJAX 310520
TAFJAX
TAF
KJAX 310520Z 3106/0106 VRB03KT P6SM FEW150 FEW250
     FM310900 24005KT 5SM BR SCT004
      TEMPO 3111/3113 1SM BR BKN002
     FM311300 24008KT P6SM SCT030
     FM312000 21008KT P6SM VCTS BKN040CB
      TEMPO 3120/3124 3SM TSRA BKN040CB
     FM010000 21005KT P6SM SKC=



000
FTUS42 KJAX 310520
TAFSSI
TAF
KSSI 310520Z 3106/0106 24005KT P6SM VCSH SCT040 BKN100
      TEMPO 3106/3108 5SM SHRA BKN040
     FM311200 24008KT P6SM SCT030
     FM311500 15008KT P6SM SCT040
     FM312000 18008KT P6SM VCTS BKN040CB=



000
FTUS42 KJAX 302341
TAFGNV
TAF
KGNV 302341Z 3100/3124 23003KT P6SM FEW040 SCT250
     FM311600 23008KT P6SM VCTS BKN050CB=



000
FTUS42 KJAX 302341
TAFSSI
TAF
KSSI 302341Z 3100/3124 23004KT P6SM FEW040 SCT250
     FM311200 23007KT P6SM SCT030
     FM312000 18008KT P6SM VCTS BKN040CB=



000
FTUS42 KJAX 302341
TAFJAX
TAF
KJAX 302341Z 3100/3124 23004KT P6SM FEW040 SCT250
     FM311000 24005KT 6SM BR SCT006
     FM311200 24007KT P6SM SCT030
     FM312000 20007KT P6SM VCTS BKN040CB=



000
FTUS42 KJAX 302341
TAFCRG
TAF
KCRG 302341Z 3100/3124 23004KT P6SM FEW040 SCT250
     FM311000 24005KT 6SM BR SCT006
     FM311200 24007KT P6SM SCT030
     FM312000 20007KT P6SM VCTS BKN040CB=



000
FTUS42 KJAX 302112 AAA
TAFSSI
TAF AMD
KSSI 302112Z 3021/3118 16008KT P6SM FEW040
     FM310200 VRB03KT P6SM SKC
     FM311300 VRB04KT P6SM VCSH BKN025=



000
FTUS42 KJAX 302017 AAB
TAFGNV
TAF AMD
KGNV 302017Z 3020/3118 24008KT P6SM VCTS BKN035CB
     FM302300 VRB02KT P6SM FEW040 SCT250
     FM311400 22005KT P6SM VCSH SCT025=



000
FTUS42 KJAX 301835 AAA
TAFGNV
TAF AMD
KGNV 301835Z 3019/3118 24008KT P6SM VCTS BKN035CB
      TEMPO 3019/3021 VRB15G25KT 3SM TSRA OVC030CB
     FM310300 VRB02KT P6SM FEW250
     FM311400 22005KT P6SM VCSH SCT025=



000
FTUS42 KJAX 301835 AAA
TAFGNV
TAF AMD
KGNV 301835Z 3019/3118 24008KT P6SM VCTS BKN035CB
      TEMPO 3019/3021 VRB15G25KT 3SM TSRA OVC030CB
     FM310300 VRB02KT P6SM FEW250
     FM311400 22005KT P6SM VCSH SCT025=



000
FTUS42 KJAX 301834 AAA
TAFCRG
TAF AMD
KCRG 301834Z 3019/3118 VRB05KT P6SM SCT040 BKN200
     FM302100 18007KT P6SM VCTS BKN040CB
     FM310200 VRB03KT P6SM FEW250
     FM311000 VRB02KT 5SM BR SCT004
     FM311400 24005KT P6SM VCSH SCT025=



000
FTUS42 KJAX 301832 AAA
TAFJAX
TAF AMD
KJAX 301832Z 3019/3118 VRB05KT P6SM SCT040 BKN200
     FM302100 22007KT P6SM VCTS BKN040CB
     FM310200 VRB03KT P6SM FEW250
     FM311000 VRB02KT 5SM BR SCT004
     FM311400 24005KT P6SM VCSH SCT025=



000
FTUS42 KJAX 301722
TAFCRG
TAF
KCRG 301722Z 3018/3118 24005KT P6SM BKN035
     FM301900 VRB05KT P6SM VCTS BKN040CB
     FM302100 13008KT P6SM VCTS BKN050CB
      TEMPO 3021/3024 VRB15G25KT 3SM TSRA OVC035CB
     FM310200 VRB03KT P6SM FEW250
     FM311000 VRB02KT 5SM BR SCT004
     FM311400 24005KT P6SM VCSH SCT025=



000
FTUS42 KJAX 301722
TAFGNV
TAF
KGNV 301722Z 3018/3118 24008KT P6SM VCTS BKN035CB
      TEMPO 3018/3022 VRB15G25KT 2SM TSRA OVC030CB
     FM310300 VRB02KT P6SM FEW250
     FM311400 22005KT P6SM VCSH SCT025=



000
FTUS42 KJAX 301722
TAFSSI
TAF
KSSI 301722Z 3018/3118 13006KT P6SM SCT035
     FM301900 15008KT P6SM VCTS BKN040CB
     FM310200 VRB03KT P6SM SKC
     FM311300 VRB04KT P6SM VCSH BKN025=



000
FTUS42 KJAX 301722
TAFJAX
TAF
KJAX 301722Z 3018/3118 20005KT P6SM BKN035
     FM301900 VRB05KT P6SM VCTS BKN040CB
     FM302100 13008KT P6SM VCTS BKN050CB
      TEMPO 3021/3024 VRB15G25KT 3SM TSRA OVC035CB
     FM310200 VRB03KT P6SM FEW250
     FM311000 VRB02KT 5SM BR SCT004
     FM311400 24005KT P6SM VCSH SCT025=



000
FTUS42 KJAX 301722
TAFGNV
TAF
KGNV 301722Z 3018/3118 24008KT P6SM VCTS BKN035CB
      TEMPO 3018/3022 VRB15G25KT 2SM TSRA OVC030CB
     FM310300 VRB02KT P6SM FEW250
     FM311400 22005KT P6SM VCSH SCT025=



000
FTUS42 KJAX 301722
TAFSSI
TAF
KSSI 301722Z 3018/3118 13006KT P6SM SCT035
     FM301900 15008KT P6SM VCTS BKN040CB
     FM310200 VRB03KT P6SM SKC
     FM311300 VRB04KT P6SM VCSH BKN025=



000
FTUS42 KJAX 301722
TAFJAX
TAF
KJAX 301722Z 3018/3118 20005KT P6SM BKN035
     FM301900 VRB05KT P6SM VCTS BKN040CB
     FM302100 13008KT P6SM VCTS BKN050CB
      TEMPO 3021/3024 VRB15G25KT 3SM TSRA OVC035CB
     FM310200 VRB03KT P6SM FEW250
     FM311000 VRB02KT 5SM BR SCT004
     FM311400 24005KT P6SM VCSH SCT025=



000
FTUS42 KJAX 301722
TAFCRG
TAF
KCRG 301722Z 3018/3118 24005KT P6SM BKN035
     FM301900 VRB05KT P6SM VCTS BKN040CB
     FM302100 13008KT P6SM VCTS BKN050CB
      TEMPO 3021/3024 VRB15G25KT 3SM TSRA OVC035CB
     FM310200 VRB03KT P6SM FEW250
     FM311000 VRB02KT 5SM BR SCT004
     FM311400 24005KT P6SM VCSH SCT025=



000
FTUS42 KJAX 301547 AAB
TAFGNV
TAF AMD
KGNV 301547Z 3016/3112 26006KT P6SM VCSH BKN035
      TEMPO 3016/3018 BKN025
     FM301800 24008KT P6SM VCTS BKN050CB
      TEMPO 3018/3022 VRB15G25KT 2SM TSRA OVC030CB
     FM310300 VRB02KT P6SM FEW250=



000
FTUS42 KJAX 301547 AAB
TAFGNV
TAF AMD
KGNV 301547Z 3016/3112 26006KT P6SM VCSH BKN035
      TEMPO 3016/3018 BKN025
     FM301800 24008KT P6SM VCTS BKN050CB
      TEMPO 3018/3022 VRB15G25KT 2SM TSRA OVC030CB
     FM310300 VRB02KT P6SM FEW250=



000
FTUS42 KJAX 301500 AAD
TAFCRG
TAF AMD
KCRG 301500Z 3015/3112 VRB04KT P6SM BKN015
      TEMPO 3015/3016 SCT015
     FM301600 12008KT P6SM VCSH SCT030
     FM302000 15010KT P6SM VCTS SCT050CB
      TEMPO 3020/3024 VRB15G25KT 3SM TSRA BKN050CB OVC080
     FM310200 VRB03KT P6SM SKC=



000
FTUS42 KJAX 301500 AAD
TAFCRG
TAF AMD
KCRG 301500Z 3015/3112 VRB04KT P6SM BKN015
      TEMPO 3015/3016 SCT015
     FM301600 12008KT P6SM VCSH SCT030
     FM302000 15010KT P6SM VCTS SCT050CB
      TEMPO 3020/3024 VRB15G25KT 3SM TSRA BKN050CB OVC080
     FM310200 VRB03KT P6SM SKC=



000
FTUS42 KJAX 301414 AAA
TAFGNV
TAF AMD
KGNV 301414Z 3014/3112 28005KT P6SM FEW025
     FM301600 26006KT P6SM VCSH BKN035
     FM301800 24008KT P6SM VCTS BKN050CB
      TEMPO 3018/3022 VRB15G25KT 2SM TSRA OVC030CB
     FM310300 VRB02KT P6SM FEW250=



000
FTUS42 KJAX 301414 AAA
TAFGNV
TAF AMD
KGNV 301414Z 3014/3112 28005KT P6SM FEW025
     FM301600 26006KT P6SM VCSH BKN035
     FM301800 24008KT P6SM VCTS BKN050CB
      TEMPO 3018/3022 VRB15G25KT 2SM TSRA OVC030CB
     FM310300 VRB02KT P6SM FEW250=



000
FTUS42 KJAX 301413 AAA
TAFSSI
TAF AMD
KSSI 301413Z 3014/3112 VRB04KT P6SM FEW025
     FM301800 15008KT P6SM VCTS BKN040CB
     FM310200 VRB03KT P6SM SKC=



000
FTUS42 KJAX 301357 AAC
TAFCRG
TAF AMD
KCRG 301357Z 3014/3112 VRB03KT P6SM SCT012 BKN250
      TEMPO 3014/3015 BKN012
     FM301600 12008KT P6SM VCSH SCT040
     FM302000 15010KT P6SM VCTS SCT050CB
      TEMPO 3020/3024 VRB15G25KT 3SM TSRA BKN050CB OVC080
     FM310200 VRB03KT P6SM SKC=



000
FTUS42 KJAX 301357 AAC
TAFCRG
TAF AMD
KCRG 301357Z 3014/3112 VRB03KT P6SM SCT012 BKN250
      TEMPO 3014/3015 BKN012
     FM301600 12008KT P6SM VCSH SCT040
     FM302000 15010KT P6SM VCTS SCT050CB
      TEMPO 3020/3024 VRB15G25KT 3SM TSRA BKN050CB OVC080
     FM310200 VRB03KT P6SM SKC=



000
FTUS42 KJAX 301350 AAB
TAFJAX
TAF AMD
KJAX 301350Z 3014/3112 VRB03KT P6SM BKN007 BKN012
     FM301500 VRB03KT P6SM SCT012 BKN250
     FM301600 15005KT P6SM VCSH SCT040
     FM302000 VRB04KT P6SM VCTS BKN050CB
      TEMPO 3020/3024 VRB15G25KT 3SM TSRA BKN050CB
     FM310200 VRB03KT P6SM SKC=



000
FTUS42 KJAX 301317 AAB
TAFCRG
TAF AMD
KCRG 301317Z 3013/3112 VRB03KT P6SM BKN007
     FM301400 VRB03KT P6SM SCT012 BKN250
     FM301600 12008KT P6SM VCSH SCT040
     FM302000 15010KT P6SM VCTS SCT050CB
      TEMPO 3020/3024 VRB15G25KT 3SM TSRA BKN050CB OVC080
     FM310200 VRB03KT P6SM SKC=



000
FTUS42 KJAX 301317 AAB
TAFCRG
TAF AMD
KCRG 301317Z 3013/3112 VRB03KT P6SM BKN007
     FM301400 VRB03KT P6SM SCT012 BKN250
     FM301600 12008KT P6SM VCSH SCT040
     FM302000 15010KT P6SM VCTS SCT050CB
      TEMPO 3020/3024 VRB15G25KT 3SM TSRA BKN050CB OVC080
     FM310200 VRB03KT P6SM SKC=



000
FTUS42 KJAX 301316 AAB
TAFJAX
TAF AMD
KJAX 301316Z 3013/3112 VRB03KT P6SM BKN007
     FM301400 VRB03KT P6SM SCT012 BKN250
     FM301600 15005KT P6SM VCSH SCT040
     FM302000 VRB04KT P6SM VCTS BKN050CB
      TEMPO 3020/3024 VRB15G25KT 3SM TSRA BKN050CB
     FM310200 VRB03KT P6SM SKC=



000
FTUS42 KJAX 301316 AAB
TAFJAX
TAF AMD
KJAX 301316Z 3013/3112 VRB03KT P6SM BKN007
     FM301400 VRB03KT P6SM SCT012 BKN250
     FM301600 15005KT P6SM VCSH SCT040
     FM302000 VRB04KT P6SM VCTS BKN050CB
      TEMPO 3020/3024 VRB15G25KT 3SM TSRA BKN050CB
     FM310200 VRB03KT P6SM SKC=



000
FTUS42 KJAX 301200 AAA
TAFCRG
TAF AMD
KCRG 301200Z 3012/3112 VRB03KT 5SM BR OVC005
     FM301300 VRB03KT 3SM BR BKN007
     FM301330 VRB03KT P6SM BKN250
     FM301600 12008KT P6SM VCSH SCT040
     FM302000 15010KT P6SM VCTS SCT050CB
      TEMPO 3020/3024 VRB15G25KT 3SM TSRA BKN050CB OVC080
     FM310200 VRB03KT P6SM SKC=



000
FTUS42 KJAX 301124
TAFJAX
TAF
KJAX 301124Z 3012/3112 VRB03KT 3/4SM BR OVC002
      TEMPO 3012/3013 2SM BR BKN004
     FM301300 VRB03KT 3SM BR BKN007
     FM301330 VRB03KT P6SM BKN250
     FM301600 15005KT P6SM VCSH SCT040
     FM302000 VRB04KT P6SM VCTS BKN050CB
      TEMPO 3020/3024 VRB15G25KT 3SM TSRA BKN050CB
     FM310200 VRB03KT P6SM SKC=



000
FTUS42 KJAX 301124
TAFCRG
TAF
KCRG 301124Z 3012/3112 VRB03KT P6SM SKC
      TEMPO 3012/3013 4SM BR BKN005
     FM301600 12008KT P6SM VCSH SCT040
     FM302000 15010KT P6SM VCTS SCT050CB
      TEMPO 3020/3024 VRB15G25KT 3SM TSRA BKN050CB OVC080
     FM310200 VRB03KT P6SM SKC=



000
FTUS42 KJAX 301124
TAFGNV
TAF
KGNV 301124Z 3012/3112 VRB03KT P6SM SKC
      TEMPO 3012/3013 5SM BR
     FM301300 21005KT P6SM SCT025
     FM301500 21008KT P6SM VCTS BKN050CB
      TEMPO 3015/3018 5SM TSRA BKN050CB
     FM301800 24008KT P6SM VCTS BKN050CB
      TEMPO 3018/3022 5SM TSRA BKN050CB
     FM310200 VRB03KT P6SM SKC=



000
FTUS42 KJAX 301124
TAFSSI
TAF
KSSI 301124Z 3012/3112 34005KT P6SM SKC
      TEMPO 3012/3013 5SM BR SCT002
     FM301800 15008KT P6SM VCTS BKN040CB
     FM310200 VRB03KT P6SM SKC=



000
FTUS42 KJAX 301124
TAFGNV
TAF
KGNV 301124Z 3012/3112 VRB03KT P6SM SKC
      TEMPO 3012/3013 5SM BR
     FM301300 21005KT P6SM SCT025
     FM301500 21008KT P6SM VCTS BKN050CB
      TEMPO 3015/3018 5SM TSRA BKN050CB
     FM301800 24008KT P6SM VCTS BKN050CB
      TEMPO 3018/3022 5SM TSRA BKN050CB
     FM310200 VRB03KT P6SM SKC=



000
FTUS42 KJAX 301124
TAFSSI
TAF
KSSI 301124Z 3012/3112 34005KT P6SM SKC
      TEMPO 3012/3013 5SM BR SCT002
     FM301800 15008KT P6SM VCTS BKN040CB
     FM310200 VRB03KT P6SM SKC=



000
FTUS42 KJAX 301124
TAFJAX
TAF
KJAX 301124Z 3012/3112 VRB03KT 3/4SM BR OVC002
      TEMPO 3012/3013 2SM BR BKN004
     FM301300 VRB03KT 3SM BR BKN007
     FM301330 VRB03KT P6SM BKN250
     FM301600 15005KT P6SM VCSH SCT040
     FM302000 VRB04KT P6SM VCTS BKN050CB
      TEMPO 3020/3024 VRB15G25KT 3SM TSRA BKN050CB
     FM310200 VRB03KT P6SM SKC=



000
FTUS42 KJAX 301124
TAFCRG
TAF
KCRG 301124Z 3012/3112 VRB03KT P6SM SKC
      TEMPO 3012/3013 4SM BR BKN005
     FM301600 12008KT P6SM VCSH SCT040
     FM302000 15010KT P6SM VCTS SCT050CB
      TEMPO 3020/3024 VRB15G25KT 3SM TSRA BKN050CB OVC080
     FM310200 VRB03KT P6SM SKC=



000
FTUS42 KJAX 301004 AAB
TAFJAX
TAF AMD
KJAX 301004Z 3010/3106 00000KT 5SM BR SCT004 SCT250
      TEMPO 3010/3012 3SM BR OVC002
     FM301300 00000KT P6SM BKN250
     FM301600 15005KT P6SM VCSH SCT040
     FM302000 VRB04KT P6SM VCTS BKN050CB
      TEMPO 3020/3024 VRB15G25KT 3SM TSRA BKN050CB=



000
FTUS42 KJAX 301004 AAB
TAFJAX
TAF AMD
KJAX 301004Z 3010/3106 00000KT 5SM BR SCT004 SCT250
      TEMPO 3010/3012 3SM BR OVC002
     FM301300 00000KT P6SM BKN250
     FM301600 15005KT P6SM VCSH SCT040
     FM302000 VRB04KT P6SM VCTS BKN050CB
      TEMPO 3020/3024 VRB15G25KT 3SM TSRA BKN050CB=



000
FTUS42 KJAX 300654 AAA
TAFGNV
TAF AMD
KGNV 300654Z 3007/3106 00000KT P6SM BKN008
     FM301300 21005KT P6SM SCT025
     FM301500 21008KT P6SM VCTS BKN050CB
      TEMPO 3015/3018 5SM TSRA BKN050CB
     FM301800 24008KT P6SM VCTS BKN050CB
      TEMPO 3018/3022 5SM TSRA BKN050CB=



000
FTUS42 KJAX 300654 AAA
TAFGNV
TAF AMD
KGNV 300654Z 3007/3106 00000KT P6SM BKN008
     FM301300 21005KT P6SM SCT025
     FM301500 21008KT P6SM VCTS BKN050CB
      TEMPO 3015/3018 5SM TSRA BKN050CB
     FM301800 24008KT P6SM VCTS BKN050CB
      TEMPO 3018/3022 5SM TSRA BKN050CB=



000
FTUS42 KJAX 300529
TAFGNV
TAF
KGNV 300529Z 3006/3106 VRB03KT P6SM SKC
     FM301500 21008KT P6SM VCTS BKN050CB
      TEMPO 3015/3018 5SM TSRA BKN050CB
     FM301800 24008KT P6SM VCTS BKN050CB
      TEMPO 3018/3022 5SM TSRA BKN050CB=



000
FTUS42 KJAX 300529
TAFSSI
TAF
KSSI 300529Z 3006/3106 VRB03KT P6SM SKC
     FM301800 15008KT P6SM VCTS BKN040CB=



000
FTUS42 KJAX 300529
TAFJAX
TAF
KJAX 300529Z 3006/3106 VRB04KT P6SM SCT250
     FM301000 00000KT 5SM BR SCT250
     FM301300 00000KT P6SM BKN250
     FM301600 15005KT P6SM VCSH SCT040
     FM302000 VRB04KT P6SM VCTS BKN050CB
      TEMPO 3020/3024 VRB15G25KT 3SM TSRA BKN050CB=



000
FTUS42 KJAX 300529
TAFCRG
TAF
KCRG 300529Z 3006/3106 32008KT P6SM SKC
     FM301600 12008KT P6SM VCSH SCT040
     FM302000 15010KT P6SM VCTS SCT050CB
      TEMPO 3020/3024 VRB15G25KT 3SM TSRA BKN050CB OVC080=



    US Dept of Commerce
    National Oceanic and Atmospheric Administration
    National Weather Service
    1325 East West Highway
    Silver Spring, MD 20910
    Page Author: NWS Internet Services Team
Disclaimer
Information Quality
Credits
Glossary
Privacy Policy
Freedom of Information Act (FOIA)
About Us
Career Opportunities